Temp: 12.3°C   Baro: 1017.9mb
  Wind: 4.0mph   Dir: NE (36°)
  Rain: 0.0mm (0.0mm/hr)
  Solar: 0W/m2  Hum: 86%
 
Bath Spa Weather Station Historical Data
Daily Summary for May 25, 2020 Units:  Both    English   Metric
Daily Weekly Monthly Yearly Custom
  High: Low: Average:
Temperature: 74 °F /  23.3 °C 44.8 °F /  7.1 °C 60.1 °F /  15.6 °C
Dew Point: 52.3 °F /  11.3 °C 42.4 °F /  5.8 °C 48.2 °F /  9 °C
Humidity: 92% 42% 68%
Wind Speed: 10.1mph /  16.3km/h - 2.6mph /  4.2km/h
Wind Gust: 16mph /  25.7km/h - -
Wind- - West
Pressure: 30.58 in /  1035.4 hPa 30.51 in /  1033.1 hPa -
Precipitation: 0.00 in /  0 mm    
Historical Graphs
 
 
Tabular Data for May 25, 2020
Time Temperature Dew Point Pressure Wind Wind Speed Wind Gust Humidity Rainfall Rate (Hourly) solar
00:04 50.5 °F /  10.3 °C 47 °F /  8.3 °C 30.55in /  1034.4hPa WNW 1.4mph /  2.3km/h 4mph /  6.4km/h 88% 0.00in /  0mm 0 W/m2
00:09 50.4 °F /  10.2 °C 46.9 °F /  8.3 °C 30.55in /  1034.4hPa WNW 0.9mph /  1.4km/h 2mph /  3.2km/h 88% 0.00in /  0mm 0 W/m2
00:14 50.4 °F /  10.2 °C 47.2 °F /  8.4 °C 30.55in /  1034.4hPa WNW 0.4mph /  0.6km/h 2mph /  3.2km/h 88.8% 0.00in /  0mm 0 W/m2
00:19 50.3 °F /  10.2 °C 47.2 °F /  8.4 °C 30.55in /  1034.4hPa WNW 1.4mph /  2.3km/h 3mph /  4.8km/h 89% 0.00in /  0mm 0 W/m2
00:24 50.2 °F /  10.1 °C 47 °F /  8.3 °C 30.55in /  1034.4hPa WNW 1mph /  1.6km/h 3mph /  4.8km/h 88.8% 0.00in /  0mm 0 W/m2
00:29 50 °F /  10 °C 46.6 °F /  8.1 °C 30.55in /  1034.4hPa WNW 1.5mph /  2.4km/h 3mph /  4.8km/h 88% 0.00in /  0mm 0 W/m2
00:34 49.8 °F /  9.9 °C 46.8 °F /  8.2 °C 30.55in /  1034.4hPa WNW 0.4mph /  0.6km/h 2mph /  3.2km/h 89% 0.00in /  0mm 0 W/m2
00:39 49.9 °F /  9.9 °C 46.8 °F /  8.2 °C 30.55in /  1034.4hPa WNW 0.5mph /  0.8km/h 2mph /  3.2km/h 89% 0.00in /  0mm 0 W/m2
00:44 49.8 °F /  9.9 °C 46.8 °F /  8.2 °C 30.55in /  1034.4hPa Calm   1mph /  1.6km/h 89% 0.00in /  0mm 0 W/m2
00:49 49.8 °F /  9.9 °C 46.8 °F /  8.2 °C 30.55in /  1034.4hPa WNW 0.4mph /  0.6km/h 2mph /  3.2km/h 89% 0.00in /  0mm 0 W/m2
00:54 49.6 °F /  9.8 °C 46.6 °F /  8.1 °C 30.55in /  1034.4hPa WNW 0.8mph /  1.3km/h 2mph /  3.2km/h 89% 0.00in /  0mm 0 W/m2
00:59 49.5 °F /  9.7 °C 46.4 °F /  8 °C 30.55in /  1034.4hPa WNW 0.2mph /  0.3km/h 2mph /  3.2km/h 89% 0.00in /  0mm 0 W/m2
01:04 49.5 °F /  9.7 °C 46.4 °F /  8 °C 30.55in /  1034.4hPa WNW 0.4mph /  0.6km/h 2mph /  3.2km/h 89% 0.00in /  0mm 0 W/m2
01:09 49.3 °F /  9.6 °C 46.2 °F /  7.9 °C 30.55in /  1034.4hPa WNW 0.9mph /  1.4km/h 2mph /  3.2km/h 89% 0.00in /  0mm 0 W/m2
01:14 49.3 °F /  9.6 °C 46.2 °F /  7.9 °C 30.55in /  1034.4hPa WNW 0.8mph /  1.3km/h 3mph /  4.8km/h 89% 0.00in /  0mm 0 W/m2
01:19 49.3 °F /  9.6 °C 46.2 °F /  7.9 °C 30.55in /  1034.4hPa WNW 0.4mph /  0.6km/h 2mph /  3.2km/h 89% 0.00in /  0mm 0 W/m2
01:24 49 °F /  9.4 °C 45.9 °F /  7.7 °C 30.55in /  1034.4hPa WNW 0.5mph /  0.8km/h 2mph /  3.2km/h 89% 0.00in /  0mm 0 W/m2
01:29 48.9 °F /  9.4 °C 45.9 °F /  7.7 °C 30.55in /  1034.4hPa WNW 0.2mph /  0.3km/h 2mph /  3.2km/h 89% 0.00in /  0mm 0 W/m2
01:34 48.8 °F /  9.3 °C 45.8 °F /  7.7 °C 30.55in /  1034.4hPa WNW 0.2mph /  0.3km/h 1mph /  1.6km/h 89% 0.00in /  0mm 0 W/m2
01:39 48.7 °F /  9.3 °C 45.8 °F /  7.7 °C 30.55in /  1034.4hPa WNW 0.2mph /  0.3km/h 1mph /  1.6km/h 89.4% 0.00in /  0mm 0 W/m2
01:44 48.7 °F /  9.3 °C 45.9 °F /  7.7 °C 30.55in /  1034.4hPa WNW 1.8mph /  2.9km/h 3mph /  4.8km/h 90% 0.00in /  0mm 0 W/m2
01:49 48.6 °F /  9.2 °C 45.8 °F /  7.7 °C 30.55in /  1034.4hPa WNW 0.5mph /  0.8km/h 3mph /  4.8km/h 90% 0.00in /  0mm 0 W/m2
01:54 48.6 °F /  9.2 °C 45.7 °F /  7.6 °C 30.55in /  1034.4hPa Calm   1mph /  1.6km/h 90% 0.00in /  0mm 0 W/m2
01:59 48.4 °F /  9.1 °C 45.5 °F /  7.5 °C 30.55in /  1034.4hPa WNW 1mph /  1.6km/h 3mph /  4.8km/h 90% 0.00in /  0mm 0 W/m2
02:04 48.2 °F /  9 °C 45.3 °F /  7.4 °C 30.54in /  1034.1hPa WNW 1.5mph /  2.4km/h 3mph /  4.8km/h 90% 0.00in /  0mm 0 W/m2
02:09 48 °F /  8.9 °C 45.1 °F /  7.3 °C 30.54in /  1034.1hPa WNW 0.4mph /  0.6km/h 2mph /  3.2km/h 90% 0.00in /  0mm 0 W/m2
02:14 48 °F /  8.9 °C 45.1 °F /  7.3 °C 30.54in /  1034.1hPa Calm     90% 0.00in /  0mm 0 W/m2
02:19 48 °F /  8.9 °C 45.1 °F /  7.3 °C 30.55in /  1034.4hPa Calm     90% 0.00in /  0mm 0 W/m2
02:24 48 °F /  8.9 °C 45.1 °F /  7.3 °C 30.55in /  1034.4hPa Calm     90% 0.00in /  0mm 0 W/m2
02:29 47.8 °F /  8.8 °C 45 °F /  7.2 °C 30.55in /  1034.4hPa Calm     90% 0.00in /  0mm 0 W/m2
02:33 47.8 °F /  8.8 °C 45 °F /  7.2 °C 30.55in /  1034.4hPa WNW 0.5mph /  0.8km/h 2mph /  3.2km/h 90% 0.00in /  0mm 0 W/m2
02:39 47.8 °F /  8.8 °C 45.1 °F /  7.3 °C 30.54in /  1034.1hPa WNW 2.1mph /  3.4km/h 3mph /  4.8km/h 90.2% 0.00in /  0mm 0 W/m2
02:44 47.9 °F /  8.8 °C 45.3 °F /  7.4 °C 30.55in /  1034.4hPa Calm   3mph /  4.8km/h 90.8% 0.00in /  0mm 0 W/m2
02:49 48 °F /  8.9 °C 45.4 °F /  7.4 °C 30.55in /  1034.4hPa Calm   1mph /  1.6km/h 90.8% 0.00in /  0mm 0 W/m2
02:54 48 °F /  8.9 °C 45.5 °F /  7.5 °C 30.55in /  1034.4hPa Calm   1mph /  1.6km/h 91% 0.00in /  0mm 0 W/m2
02:59 47.9 °F /  8.8 °C 45.3 °F /  7.4 °C 30.55in /  1034.4hPa Calm     91% 0.00in /  0mm 0 W/m2
03:04 47.7 °F /  8.7 °C 45.1 °F /  7.3 °C 30.55in /  1034.4hPa Calm     91% 0.00in /  0mm 0 W/m2
03:09 47.6 °F /  8.7 °C 45 °F /  7.2 °C 30.55in /  1034.4hPa Calm     91% 0.00in /  0mm 0 W/m2
03:14 47.2 °F /  8.4 °C 44.7 °F /  7.1 °C 30.55in /  1034.4hPa WNW 0.4mph /  0.6km/h 2mph /  3.2km/h 91% 0.00in /  0mm 0 W/m2
03:19 46.8 °F /  8.2 °C 44.3 °F /  6.8 °C 30.54in /  1034.1hPa WNW 1.6mph /  2.6km/h 4mph /  6.4km/h 91% 0.00in /  0mm 0 W/m2
03:24 46.8 °F /  8.2 °C 44.2 °F /  6.8 °C 30.55in /  1034.4hPa WNW 0.5mph /  0.8km/h 3mph /  4.8km/h 91% 0.00in /  0mm 0 W/m2
03:29 46.8 °F /  8.2 °C 44.2 °F /  6.8 °C 30.55in /  1034.4hPa WNW 0.5mph /  0.8km/h 2mph /  3.2km/h 91% 0.00in /  0mm 0 W/m2
03:34 46.8 °F /  8.2 °C 44.2 °F /  6.8 °C 30.55in /  1034.4hPa WNW 0.6mph /  1km/h 3mph /  4.8km/h 91% 0.00in /  0mm 0 W/m2
03:39 46.8 °F /  8.2 °C 44.2 °F /  6.8 °C 30.55in /  1034.4hPa Calm   3mph /  4.8km/h 91% 0.00in /  0mm 0 W/m2
03:44 46.6 °F /  8.1 °C 44.1 °F /  6.7 °C 30.55in /  1034.4hPa Calm     91% 0.00in /  0mm 0 W/m2
03:49 46.6 °F /  8.1 °C 44.1 °F /  6.7 °C 30.55in /  1034.4hPa WNW 0.2mph /  0.3km/h 1mph /  1.6km/h 91% 0.00in /  0mm 0 W/m2
03:54 46.6 °F /  8.1 °C 44.1 °F /  6.7 °C 30.55in /  1034.4hPa Calm   1mph /  1.6km/h 91% 0.00in /  0mm 0 W/m2
03:59 46.4 °F /  8 °C 43.9 °F /  6.6 °C 30.55in /  1034.4hPa Calm   1mph /  1.6km/h 91% 0.00in /  0mm 0 W/m2
04:04 46.3 °F /  7.9 °C 43.8 °F /  6.6 °C 30.55in /  1034.4hPa WNW 0.2mph /  0.3km/h 1mph /  1.6km/h 91% 0.00in /  0mm 0 W/m2
04:09 46 °F /  7.8 °C 43.5 °F /  6.4 °C 30.55in /  1034.4hPa WNW 1.3mph /  2.1km/h 2mph /  3.2km/h 91% 0.00in /  0mm 0 W/m2
04:14 46 °F /  7.8 °C 43.5 °F /  6.4 °C 30.55in /  1034.4hPa WNW 0.4mph /  0.6km/h 2mph /  3.2km/h 91% 0.00in /  0mm 0 W/m2
04:19 46 °F /  7.8 °C 43.5 °F /  6.4 °C 30.55in /  1034.4hPa WNW 0.2mph /  0.3km/h 2mph /  3.2km/h 91% 0.00in /  0mm 0 W/m2
04:24 45.9 °F /  7.7 °C 43.3 °F /  6.3 °C 30.55in /  1034.4hPa Calm   1mph /  1.6km/h 91% 0.00in /  0mm 0 W/m2
04:29 45.9 °F /  7.7 °C 43.3 °F /  6.3 °C 30.55in /  1034.4hPa Calm     91% 0.00in /  0mm 0 W/m2
04:34 45.9 °F /  7.7 °C 43.3 °F /  6.3 °C 30.55in /  1034.4hPa Calm     91% 0.00in /  0mm 0 W/m2
04:39 45.7 °F /  7.6 °C 43.2 °F /  6.2 °C 30.55in /  1034.4hPa Calm   1mph /  1.6km/h 91% 0.00in /  0mm 0 W/m2
04:44 45.6 °F /  7.6 °C 43.1 °F /  6.2 °C 30.55in /  1034.4hPa Calm     91% 0.00in /  0mm 0 W/m2
04:49 45.5 °F /  7.5 °C 43.1 °F /  6.2 °C 30.55in /  1034.4hPa Calm     91.4% 0.00in /  0mm 0 W/m2
04:54 45.3 °F /  7.4 °C 42.8 °F /  6 °C 30.55in /  1034.4hPa Calm     91% 0.00in /  0mm 0 W/m2
04:59 45.2 °F /  7.3 °C 42.6 °F /  5.9 °C 30.55in /  1034.4hPa Calm     91% 0.00in /  0mm 0 W/m2
05:04 45 °F /  7.2 °C 42.4 °F /  5.8 °C 30.55in /  1034.4hPa Calm     91% 0.00in /  0mm 0 W/m2
05:09 45 °F /  7.2 °C 42.5 °F /  5.8 °C 30.55in /  1034.4hPa Calm     91.2% 0.00in /  0mm 5 W/m2
05:14 44.9 °F /  7.2 °C 42.7 °F /  5.9 °C 30.55in /  1034.4hPa Calm     91.8% 0.00in /  0mm 7 W/m2
05:19 45 °F /  7.2 °C 42.8 °F /  6 °C 30.55in /  1034.4hPa Calm     92% 0.00in /  0mm 9 W/m2
05:24 45 °F /  7.2 °C 42.8 °F /  6 °C 30.55in /  1034.4hPa Calm     92% 0.00in /  0mm 11 W/m2
05:29 45 °F /  7.2 °C 42.8 °F /  6 °C 30.56in /  1034.8hPa Calm     92% 0.00in /  0mm 12 W/m2
05:34 45 °F /  7.2 °C 42.8 °F /  6 °C 30.56in /  1034.8hPa Calm     92% 0.00in /  0mm 14 W/m2
05:39 44.8 °F /  7.1 °C 42.6 °F /  5.9 °C 30.56in /  1034.8hPa Calm     92% 0.00in /  0mm 18 W/m2
05:44 45 °F /  7.2 °C 42.8 °F /  6 °C 30.56in /  1034.8hPa Calm     92% 0.00in /  0mm 19 W/m2
05:49 45 °F /  7.2 °C 42.8 °F /  6 °C 30.56in /  1034.8hPa Calm     92% 0.00in /  0mm 21 W/m2
05:54 45.1 °F /  7.3 °C 42.9 °F /  6.1 °C 30.56in /  1034.8hPa Calm     92% 0.00in /  0mm 25 W/m2
05:59 45.1 °F /  7.3 °C 43 °F /  6.1 °C 30.56in /  1034.8hPa Calm     92% 0.00in /  0mm 25 W/m2
06:04 45.1 °F /  7.3 °C 43 °F /  6.1 °C 30.56in /  1034.8hPa Calm     92% 0.00in /  0mm 26 W/m2
06:09 45.3 °F /  7.4 °C 43.2 °F /  6.2 °C 30.57in /  1035.1hPa Calm     92% 0.00in /  0mm 30 W/m2
06:14 45.1 °F /  7.3 °C 43 °F /  6.1 °C 30.57in /  1035.1hPa Calm     92% 0.00in /  0mm 35 W/m2
06:19 45.3 °F /  7.4 °C 43.2 °F /  6.2 °C 30.57in /  1035.1hPa Calm     92% 0.00in /  0mm 35 W/m2
06:24 45.4 °F /  7.4 °C 43.3 °F /  6.3 °C 30.57in /  1035.1hPa Calm     92% 0.00in /  0mm 37 W/m2
06:29 45.6 °F /  7.6 °C 43.4 °F /  6.3 °C 30.57in /  1035.1hPa Calm     92% 0.00in /  0mm 42 W/m2
06:34 45.8 °F /  7.7 °C 43.6 °F /  6.4 °C 30.57in /  1035.1hPa Calm     92% 0.00in /  0mm 49 W/m2
06:39 45.9 °F /  7.7 °C 43.7 °F /  6.5 °C 30.57in /  1035.1hPa Calm     92% 0.00in /  0mm 58 W/m2
06:44 46 °F /  7.8 °C 43.9 °F /  6.6 °C 30.57in /  1035.1hPa Calm     92% 0.00in /  0mm 72 W/m2
06:49 46.2 °F /  7.9 °C 44.1 °F /  6.7 °C 30.57in /  1035.1hPa Calm     92% 0.00in /  0mm 84 W/m2
06:54 46.3 °F /  7.9 °C 44.2 °F /  6.8 °C 30.57in /  1035.1hPa Calm     92% 0.00in /  0mm 100 W/m2
06:59 46.7 °F /  8.2 °C 44.5 °F /  6.9 °C 30.57in /  1035.1hPa Calm     92% 0.00in /  0mm 113 W/m2
07:04 46.9 °F /  8.3 °C 44.7 °F /  7.1 °C 30.57in /  1035.1hPa Calm     92% 0.00in /  0mm 128 W/m2
07:09 47.2 °F /  8.4 °C 45.1 °F /  7.3 °C 30.57in /  1035.1hPa Calm     92% 0.00in /  0mm 144 W/m2
07:14 47.6 °F /  8.7 °C 45.5 °F /  7.5 °C 30.58in /  1035.4hPa Calm     92% 0.00in /  0mm 156 W/m2
07:19 47.9 °F /  8.8 °C 45.8 °F /  7.7 °C 30.57in /  1035.1hPa Calm     92% 0.00in /  0mm 172 W/m2
07:24 48.4 °F /  9.1 °C 46.2 °F /  7.9 °C 30.57in /  1035.1hPa Calm     92% 0.00in /  0mm 193 W/m2
07:29 48.7 °F /  9.3 °C 46.6 °F /  8.1 °C 30.57in /  1035.1hPa Calm     92% 0.00in /  0mm 209 W/m2
07:34 49.1 °F /  9.5 °C 46.9 °F /  8.3 °C 30.57in /  1035.1hPa Calm     92% 0.00in /  0mm 223 W/m2
07:39 49.4 °F /  9.7 °C 47.2 °F /  8.4 °C 30.58in /  1035.4hPa Calm     92% 0.00in /  0mm 236 W/m2
07:44 49.6 °F /  9.8 °C 47.5 °F /  8.6 °C 30.57in /  1035.1hPa Calm     92% 0.00in /  0mm 250 W/m2
07:49 49.8 °F /  9.9 °C 47.6 °F /  8.7 °C 30.57in /  1035.1hPa Calm     92% 0.00in /  0mm 264 W/m2
07:53 50.2 °F /  10.1 °C 48 °F /  8.9 °C 30.57in /  1035.1hPa Calm     92% 0.00in /  0mm 278 W/m2
07:59 50.5 °F /  10.3 °C 48.4 °F /  9.1 °C 30.57in /  1035.1hPa Calm     92% 0.00in /  0mm 294 W/m2
08:04 51.1 °F /  10.6 °C 48.8 °F /  9.3 °C 30.57in /  1035.1hPa Calm     91.6% 0.00in /  0mm 313 W/m2
08:09 52 °F /  11.1 °C 49.4 °F /  9.7 °C 30.58in /  1035.4hPa Calm     90.8% 0.00in /  0mm 330 W/m2
08:14 52.4 °F /  11.3 °C 49.3 °F /  9.6 °C 30.58in /  1035.4hPa Calm     89.2% 0.00in /  0mm 348 W/m2
08:19 53 °F /  11.7 °C 49.1 °F /  9.5 °C 30.58in /  1035.4hPa Calm     86.8% 0.00in /  0mm 355 W/m2
08:24 53.6 °F /  12 °C 49.1 °F /  9.5 °C 30.58in /  1035.4hPa Calm     84.4% 0.00in /  0mm 381 W/m2
08:28 54.5 °F /  12.5 °C 49.3 °F /  9.6 °C 30.58in /  1035.4hPa Calm     82.5% 0.00in /  0mm 396 W/m2
08:34 55.3 °F /  12.9 °C 49.6 °F /  9.8 °C 30.58in /  1035.4hPa Calm     81.2% 0.00in /  0mm 410 W/m2
08:39 56.1 °F /  13.4 °C 49.7 °F /  9.8 °C 30.58in /  1035.4hPa Calm     79.4% 0.00in /  0mm 425 W/m2
08:44 56.3 °F /  13.5 °C 49.5 °F /  9.7 °C 30.57in /  1035.1hPa WNW 0.8mph /  1.3km/h 2mph /  3.2km/h 78.2% 0.00in /  0mm 438 W/m2
08:49 56.1 °F /  13.4 °C 49.3 °F /  9.6 °C 30.57in /  1035.1hPa WNW 0.4mph /  0.6km/h 3mph /  4.8km/h 78% 0.00in /  0mm 446 W/m2
08:54 56.1 °F /  13.4 °C 49 °F /  9.4 °C 30.57in /  1035.1hPa SSW 1.3mph /  2.1km/h 3mph /  4.8km/h 77.2% 0.00in /  0mm 464 W/m2
08:59 57 °F /  13.9 °C 49.6 °F /  9.8 °C 30.57in /  1035.1hPa SSW 0.4mph /  0.6km/h 2mph /  3.2km/h 76.6% 0.00in /  0mm 473 W/m2
09:04 58.5 °F /  14.7 °C 50.5 °F /  10.3 °C 30.57in /  1035.1hPa South 1.2mph /  1.9km/h 3mph /  4.8km/h 74.8% 0.00in /  0mm 489 W/m2
09:09 59.3 °F /  15.2 °C 50.3 °F /  10.2 °C 30.57in /  1035.1hPa ESE 1.2mph /  1.9km/h 4mph /  6.4km/h 72% 0.00in /  0mm 503 W/m2
09:14 59.6 °F /  15.3 °C 50.2 °F /  10.1 °C 30.57in /  1035.1hPa ESE 0.4mph /  0.6km/h 2mph /  3.2km/h 70.6% 0.00in /  0mm 515 W/m2
09:19 59.8 °F /  15.4 °C 49.8 °F /  9.9 °C 30.57in /  1035.1hPa SSW 1.8mph /  2.9km/h 5mph /  8km/h 69.4% 0.00in /  0mm 522 W/m2
09:24 59.5 °F /  15.3 °C 48.7 °F /  9.3 °C 30.57in /  1035.1hPa SSW 1.8mph /  2.9km/h 5mph /  8km/h 67.6% 0.00in /  0mm 540 W/m2
09:29 60 °F /  15.6 °C 49 °F /  9.4 °C 30.57in /  1035.1hPa SSW 1.6mph /  2.6km/h 4mph /  6.4km/h 66.8% 0.00in /  0mm 552 W/m2
09:34 61.3 °F /  16.3 °C 49.6 °F /  9.8 °C 30.57in /  1035.1hPa SE 1.2mph /  1.9km/h 5mph /  8km/h 65.6% 0.00in /  0mm 566 W/m2
09:39 62.1 °F /  16.7 °C 49.6 °F /  9.8 °C 30.57in /  1035.1hPa East 2.2mph /  3.5km/h 4mph /  6.4km/h 63.8% 0.00in /  0mm 573 W/m2
09:44 61.3 °F /  16.3 °C 49.1 °F /  9.5 °C 30.57in /  1035.1hPa SSE 1.7mph /  2.7km/h 6mph /  9.7km/h 64.2% 0.00in /  0mm 585 W/m2
09:49 61 °F /  16.1 °C 48.8 °F /  9.3 °C 30.57in /  1035.1hPa SSE 2.1mph /  3.4km/h 6mph /  9.7km/h 64.4% 0.00in /  0mm 598 W/m2
09:54 61.6 °F /  16.4 °C 49.6 °F /  9.8 °C 30.57in /  1035.1hPa SSE 1.6mph /  2.6km/h 6mph /  9.7km/h 64.6% 0.00in /  0mm 608 W/m2
09:59 62.1 °F /  16.7 °C 49.7 °F /  9.8 °C 30.57in /  1035.1hPa SSE 2.5mph /  4km/h 5mph /  8km/h 63.8% 0.00in /  0mm 621 W/m2
10:04 62.5 °F /  16.9 °C 48.8 °F /  9.3 °C 30.56in /  1034.8hPa South 2.8mph /  4.5km/h 6mph /  9.7km/h 60.6% 0.00in /  0mm 629 W/m2
10:09 62.4 °F /  16.9 °C 48.6 °F /  9.2 °C 30.57in /  1035.1hPa SSW 4mph /  6.4km/h 8mph /  12.9km/h 60.6% 0.00in /  0mm 643 W/m2
10:14 63 °F /  17.2 °C 48.5 °F /  9.2 °C 30.57in /  1035.1hPa SE 1.8mph /  2.9km/h 6mph /  9.7km/h 59.2% 0.00in /  0mm 652 W/m2
10:19 63.3 °F /  17.4 °C 48.4 °F /  9.1 °C 30.57in /  1035.1hPa SSW 2.5mph /  4km/h 4mph /  6.4km/h 58.2% 0.00in /  0mm 663 W/m2
10:24 63.8 °F /  17.7 °C 48.9 °F /  9.4 °C 30.57in /  1035.1hPa SW 2.8mph /  4.5km/h 5mph /  8km/h 58.4% 0.00in /  0mm 670 W/m2
10:29 63.8 °F /  17.7 °C 48.9 °F /  9.4 °C 30.57in /  1035.1hPa SW 0.4mph /  0.6km/h 4mph /  6.4km/h 58.2% 0.00in /  0mm 680 W/m2
10:34 64.4 °F /  18 °C 49 °F /  9.4 °C 30.57in /  1035.1hPa South 1.1mph /  1.8km/h 4mph /  6.4km/h 57.4% 0.00in /  0mm 691 W/m2
10:39 65.2 °F /  18.4 °C 49.5 °F /  9.7 °C 30.57in /  1035.1hPa South 1.5mph /  2.4km/h 5mph /  8km/h 57% 0.00in /  0mm 700 W/m2
10:44 65.2 °F /  18.4 °C 49 °F /  9.4 °C 30.56in /  1034.8hPa SW 2.1mph /  3.4km/h 6mph /  9.7km/h 55.8% 0.00in /  0mm 707 W/m2
10:49 64.8 °F /  18.2 °C 48.7 °F /  9.3 °C 30.56in /  1034.8hPa West 2.8mph /  4.5km/h 6mph /  9.7km/h 55.8% 0.00in /  0mm 715 W/m2
10:54 65.2 °F /  18.4 °C 49 °F /  9.4 °C 30.56in /  1034.8hPa West 2.8mph /  4.5km/h 7mph /  11.3km/h 55.8% 0.00in /  0mm 726 W/m2
10:59 65.4 °F /  18.6 °C 49.2 °F /  9.6 °C 30.56in /  1034.8hPa West 3.7mph /  6km/h 6mph /  9.7km/h 55.8% 0.00in /  0mm 733 W/m2
11:04 65.8 °F /  18.8 °C 49.1 °F /  9.5 °C 30.56in /  1034.8hPa SSW 2.3mph /  3.7km/h 5mph /  8km/h 54.8% 0.00in /  0mm 740 W/m2
11:09 66.9 °F /  19.4 °C 49.5 °F /  9.7 °C 30.56in /  1034.8hPa SSE 1.6mph /  2.6km/h 5mph /  8km/h 53.6% 0.00in /  0mm 744 W/m2
11:14 66.7 °F /  19.3 °C 49.5 °F /  9.7 °C 30.56in /  1034.8hPa SW 3.7mph /  6km/h 9mph /  14.5km/h 53.8% 0.00in /  0mm 752 W/m2
11:19 66.6 °F /  19.2 °C 49.5 °F /  9.7 °C 30.56in /  1034.8hPa SSW 3.2mph /  5.1km/h 9mph /  14.5km/h 54% 0.00in /  0mm 761 W/m2
11:24 66.4 °F /  19.1 °C 49.3 °F /  9.6 °C 30.56in /  1034.8hPa SSW 2mph /  3.2km/h 6mph /  9.7km/h 54.2% 0.00in /  0mm 766 W/m2
11:29 66.7 °F /  19.3 °C 49.9 °F /  9.9 °C 30.56in /  1034.8hPa WSW 3.1mph /  5km/h 7mph /  11.3km/h 54.8% 0.00in /  0mm 772 W/m2
11:34 67.6 °F /  19.8 °C 50.1 °F /  10.1 °C 30.56in /  1034.8hPa West 2mph /  3.2km/h 7mph /  11.3km/h 53.6% 0.00in /  0mm 775 W/m2
11:39 68.1 °F /  20.1 °C 49.6 °F /  9.8 °C 30.56in /  1034.8hPa SW 4.2mph /  6.8km/h 8mph /  12.9km/h 51.6% 0.00in /  0mm 786 W/m2
11:44 67.9 °F /  19.9 °C 49.4 °F /  9.7 °C 30.55in /  1034.4hPa West 4.6mph /  7.4km/h 9mph /  14.5km/h 51.6% 0.00in /  0mm 793 W/m2
11:49 67.9 °F /  19.9 °C 49.4 °F /  9.7 °C 30.56in /  1034.8hPa WSW 3.2mph /  5.1km/h 8mph /  12.9km/h 51.6% 0.00in /  0mm 796 W/m2
11:54 68.9 °F /  20.5 °C 50.2 °F /  10.1 °C 30.56in /  1034.8hPa WSW 5.2mph /  8.4km/h 9mph /  14.5km/h 51.3% 0.00in /  0mm 805 W/m2
11:59 68.1 °F /  20.1 °C 49.3 °F /  9.6 °C 30.56in /  1034.8hPa SSW 4.4mph /  7.1km/h 10mph /  16.1km/h 51% 0.00in /  0mm 807 W/m2
12:04 68.3 °F /  20.2 °C 49.6 °F /  9.8 °C 30.55in /  1034.4hPa West 2.1mph /  3.4km/h 6mph /  9.7km/h 51.4% 0.00in /  0mm 810 W/m2
12:09 68.7 °F /  20.4 °C 49.4 °F /  9.7 °C 30.56in /  1034.8hPa West 4.5mph /  7.2km/h 11mph /  17.7km/h 50.2% 0.00in /  0mm 817 W/m2
12:14 68.6 °F /  20.3 °C 48.9 °F /  9.4 °C 30.56in /  1034.8hPa West 5.5mph /  8.9km/h 9mph /  14.5km/h 49.4% 0.00in /  0mm 819 W/m2
12:19 68.9 °F /  20.5 °C 48.7 °F /  9.3 °C 30.56in /  1034.8hPa WNW 5.5mph /  8.9km/h 11mph /  17.7km/h 48.6% 0.00in /  0mm 821 W/m2
12:24 68.6 °F /  20.3 °C 48.6 °F /  9.2 °C 30.56in /  1034.8hPa WNW 6.4mph /  10.3km/h 11mph /  17.7km/h 49% 0.00in /  0mm 826 W/m2
12:29 69 °F /  20.6 °C 49.2 °F /  9.6 °C 30.56in /  1034.8hPa West 4.9mph /  7.9km/h 11mph /  17.7km/h 49.4% 0.00in /  0mm 824 W/m2
12:34 69.2 °F /  20.7 °C 49.5 °F /  9.7 °C 30.55in /  1034.4hPa WNW 7.3mph /  11.7km/h 11mph /  17.7km/h 49.5% 0.00in /  0mm 826 W/m2
12:39 69 °F /  20.6 °C 49.1 °F /  9.5 °C 30.55in /  1034.4hPa WNW 7.1mph /  11.4km/h 10mph /  16.1km/h 49.2% 0.00in /  0mm 821 W/m2
12:44 68.9 °F /  20.5 °C 49.3 °F /  9.6 °C 30.55in /  1034.4hPa WNW 6.6mph /  10.6km/h 12mph /  19.3km/h 49.8% 0.00in /  0mm 831 W/m2
12:49 69.2 °F /  20.7 °C 49.7 °F /  9.8 °C 30.55in /  1034.4hPa NW 5.7mph /  9.2km/h 11mph /  17.7km/h 50% 0.00in /  0mm 833 W/m2
12:54 69.3 °F /  20.7 °C 49.7 °F /  9.8 °C 30.55in /  1034.4hPa West 7.2mph /  11.6km/h 12mph /  19.3km/h 49.6% 0.00in /  0mm 840 W/m2
12:59 69.6 °F /  20.9 °C 49.6 °F /  9.8 °C 30.56in /  1034.8hPa WSW 5.9mph /  9.5km/h 11mph /  17.7km/h 49% 0.00in /  0mm 840 W/m2
13:04 69 °F /  20.6 °C 49.5 °F /  9.7 °C 30.55in /  1034.4hPa West 4mph /  6.4km/h 10mph /  16.1km/h 49.8% 0.00in /  0mm 844 W/m2
13:09 69.6 °F /  20.9 °C 49.6 °F /  9.8 °C 30.55in /  1034.4hPa West 4.4mph /  7.1km/h 12mph /  19.3km/h 49% 0.00in /  0mm 849 W/m2
13:14 69.5 °F /  20.8 °C 50 °F /  10 °C 30.55in /  1034.4hPa WNW 5.3mph /  8.5km/h 8mph /  12.9km/h 49.8% 0.00in /  0mm 849 W/m2
13:19 70.5 °F /  21.4 °C 50.2 °F /  10.1 °C 30.55in /  1034.4hPa West 4.1mph /  6.6km/h 10mph /  16.1km/h 48.8% 0.00in /  0mm 853 W/m2
13:24 70.5 °F /  21.4 °C 49.7 °F /  9.8 °C 30.55in /  1034.4hPa WSW 6.2mph /  10km/h 11mph /  17.7km/h 47.8% 0.00in /  0mm 853 W/m2
13:29 70.1 °F /  21.2 °C 50 °F /  10 °C 30.55in /  1034.4hPa SW 3.3mph /  5.3km/h 11mph /  17.7km/h 48.8% 0.00in /  0mm 851 W/m2
13:34 70.6 °F /  21.4 °C 49.8 °F /  9.9 °C 30.55in /  1034.4hPa WNW 3.6mph /  5.8km/h 11mph /  17.7km/h 47.8% 0.00in /  0mm 847 W/m2
13:39 70.2 °F /  21.2 °C 49.6 °F /  9.8 °C 30.55in /  1034.4hPa West 3.9mph /  6.3km/h 11mph /  17.7km/h 48% 0.00in /  0mm 844 W/m2
13:44 70.6 °F /  21.4 °C 50.2 °F /  10.1 °C 30.55in /  1034.4hPa NW 3.8mph /  6.1km/h 9mph /  14.5km/h 48.6% 0.00in /  0mm 842 W/m2
13:49 70.2 °F /  21.2 °C 49.5 °F /  9.7 °C 30.55in /  1034.4hPa NW 8.4mph /  13.5km/h 13mph /  20.9km/h 47.8% 0.00in /  0mm 840 W/m2
13:54 70.1 °F /  21.2 °C 49.9 °F /  9.9 °C 30.55in /  1034.4hPa NW 5.2mph /  8.4km/h 10mph /  16.1km/h 48.8% 0.00in /  0mm 840 W/m2
13:59 70.8 °F /  21.6 °C 50.6 °F /  10.3 °C 30.55in /  1034.4hPa WNW 4.6mph /  7.4km/h 10mph /  16.1km/h 48.8% 0.00in /  0mm 838 W/m2
14:04 71.8 °F /  22.1 °C 50.7 °F /  10.4 °C 30.55in /  1034.4hPa West 5.8mph /  9.3km/h 11mph /  17.7km/h 47.4% 0.00in /  0mm 838 W/m2
14:09 71.4 °F /  21.9 °C 50.2 °F /  10.1 °C 30.55in /  1034.4hPa WSW 5.6mph /  9km/h 10mph /  16.1km/h 47% 0.00in /  0mm 835 W/m2
14:14 71.4 °F /  21.9 °C 49.7 °F /  9.8 °C 30.54in /  1034.1hPa WSW 2.9mph /  4.7km/h 9mph /  14.5km/h 46.2% 0.00in /  0mm 835 W/m2
14:19 71.4 °F /  21.9 °C 49.3 °F /  9.6 °C 30.54in /  1034.1hPa WNW 5.4mph /  8.7km/h 10mph /  16.1km/h 45.6% 0.00in /  0mm 828 W/m2
14:24 71.3 °F /  21.8 °C 50.2 °F /  10.1 °C 30.54in /  1034.1hPa WNW 5.7mph /  9.2km/h 12mph /  19.3km/h 47.2% 0.00in /  0mm 826 W/m2
14:29 72.1 °F /  22.3 °C 50.4 °F /  10.2 °C 30.54in /  1034.1hPa WNW 2.1mph /  3.4km/h 6mph /  9.7km/h 46.4% 0.00in /  0mm 823 W/m2
14:34 72.4 °F /  22.4 °C 50.1 °F /  10.1 °C 30.54in /  1034.1hPa NW 6.3mph /  10.1km/h 11mph /  17.7km/h 45.4% 0.00in /  0mm 819 W/m2
14:39 72.3 °F /  22.4 °C 50.1 °F /  10.1 °C 30.54in /  1034.1hPa West 4.3mph /  6.9km/h 11mph /  17.7km/h 45.6% 0.00in /  0mm 814 W/m2
14:44 71.9 °F /  22.2 °C 49.8 °F /  9.9 °C 30.54in /  1034.1hPa NW 6.5mph /  10.5km/h 13mph /  20.9km/h 45.8% 0.00in /  0mm 809 W/m2
14:49 71.2 °F /  21.8 °C 49.5 °F /  9.7 °C 30.54in /  1034.1hPa WNW 4mph /  6.4km/h 9mph /  14.5km/h 46.2% 0.00in /  0mm 802 W/m2
14:54 71.7 °F /  22.1 °C 49.2 °F /  9.6 °C 30.54in /  1034.1hPa SSW 4mph /  6.4km/h 11mph /  17.7km/h 45% 0.00in /  0mm 800 W/m2
14:59 71.5 °F /  21.9 °C 49.1 °F /  9.5 °C 30.54in /  1034.1hPa West 5.6mph /  9km/h 10mph /  16.1km/h 45.2% 0.00in /  0mm 795 W/m2
15:04 72.1 °F /  22.3 °C 49 °F /  9.4 °C 30.54in /  1034.1hPa West 3.6mph /  5.8km/h 12mph /  19.3km/h 44% 0.00in /  0mm 788 W/m2
15:09 72.1 °F /  22.3 °C 48.7 °F /  9.3 °C 30.54in /  1034.1hPa NW 7.4mph /  11.9km/h 12mph /  19.3km/h 43.6% 0.00in /  0mm 782 W/m2
15:14 71.6 °F /  22 °C 48 °F /  8.9 °C 30.53in /  1033.7hPa WNW 6mph /  9.7km/h 12mph /  19.3km/h 43.2% 0.00in /  0mm 779 W/m2
15:19 72.1 °F /  22.3 °C 48.2 °F /  9 °C 30.54in /  1034.1hPa WNW 7.2mph /  11.6km/h 14mph /  22.5km/h 42.6% 0.00in /  0mm 768 W/m2
15:24 72.1 °F /  22.3 °C 48 °F /  8.9 °C 30.54in /  1034.1hPa WNW 3.3mph /  5.3km/h 9mph /  14.5km/h 42.4% 0.00in /  0mm 759 W/m2
15:29 72.5 °F /  22.5 °C 48.1 °F /  8.9 °C 30.53in /  1033.7hPa West 1.7mph /  2.7km/h 6mph /  9.7km/h 42% 0.00in /  0mm 754 W/m2
15:34 72.7 °F /  22.6 °C 48.5 °F /  9.2 °C 30.53in /  1033.7hPa WNW 5.8mph /  9.3km/h 11mph /  17.7km/h 42.4% 0.00in /  0mm 747 W/m2
15:39 73 °F /  22.8 °C 49 °F /  9.4 °C 30.53in /  1033.7hPa WNW 4mph /  6.4km/h 11mph /  17.7km/h 42.6% 0.00in /  0mm 740 W/m2
15:44 73.5 °F /  23.1 °C 49.3 °F /  9.6 °C 30.53in /  1033.7hPa NW 4.5mph /  7.2km/h 10mph /  16.1km/h 42.6% 0.00in /  0mm 731 W/m2
15:49 73.2 °F /  22.9 °C 49.2 °F /  9.6 °C 30.53in /  1033.7hPa NNW 3.7mph /  6km/h 12mph /  19.3km/h 42.6% 0.00in /  0mm 722 W/m2
15:54 73.4 °F /  23 °C 49.1 °F /  9.5 °C 30.53in /  1033.7hPa NW 4.8mph /  7.7km/h 12mph /  19.3km/h 42.4% 0.00in /  0mm 715 W/m2
15:59 73.4 °F /  23 °C 49.5 °F /  9.7 °C 30.53in /  1033.7hPa NW 4.3mph /  6.9km/h 9mph /  14.5km/h 43% 0.00in /  0mm 708 W/m2
16:04 73.7 °F /  23.2 °C 50 °F /  10 °C 30.53in /  1033.7hPa WNW 3.3mph /  5.3km/h 9mph /  14.5km/h 43.4% 0.00in /  0mm 703 W/m2
16:09 73.6 °F /  23.1 °C 49.3 °F /  9.6 °C 30.53in /  1033.7hPa SW 6.2mph /  10km/h 11mph /  17.7km/h 42.4% 0.00in /  0mm 689 W/m2
16:14 73 °F /  22.8 °C 49.1 °F /  9.5 °C 30.53in /  1033.7hPa WSW 4.1mph /  6.6km/h 8mph /  12.9km/h 42.8% 0.00in /  0mm 680 W/m2
16:19 73.2 °F /  22.9 °C 49.4 °F /  9.7 °C 30.52in /  1033.4hPa SSW 3.9mph /  6.3km/h 8mph /  12.9km/h 43% 0.00in /  0mm 671 W/m2
16:24 73 °F /  22.8 °C 49.8 °F /  9.9 °C 30.52in /  1033.4hPa WSW 2.7mph /  4.3km/h 7mph /  11.3km/h 44% 0.00in /  0mm 661 W/m2
16:29 73.8 °F /  23.2 °C 51.1 °F /  10.6 °C 30.52in /  1033.4hPa WSW 3mph /  4.8km/h 7mph /  11.3km/h 45% 0.00in /  0mm 654 W/m2
16:34 73.9 °F /  23.3 °C 51.6 °F /  10.9 °C 30.52in /  1033.4hPa WNW 7.2mph /  11.6km/h 11mph /  17.7km/h 45.8% 0.00in /  0mm 643 W/m2
16:39 73.5 °F /  23.1 °C 50.9 °F /  10.5 °C 30.52in /  1033.4hPa West 4.4mph /  7.1km/h 11mph /  17.7km/h 45.2% 0.00in /  0mm 628 W/m2
16:44 73.8 °F /  23.2 °C 50.8 °F /  10.4 °C 30.52in /  1033.4hPa West 4.7mph /  7.6km/h 11mph /  17.7km/h 44.4% 0.00in /  0mm 622 W/m2
16:49 73.6 °F /  23.1 °C 51.2 °F /  10.7 °C 30.52in /  1033.4hPa WNW 4mph /  6.4km/h 11mph /  17.7km/h 45.6% 0.00in /  0mm 615 W/m2
16:54 73.9 °F /  23.3 °C 51.8 °F /  11 °C 30.52in /  1033.4hPa West 5.3mph /  8.5km/h 9mph /  14.5km/h 46% 0.00in /  0mm 585 W/m2
16:58 73.6 °F /  23.1 °C 51.7 °F /  10.9 °C 30.52in /  1033.4hPa West 7.1mph /  11.4km/h 9mph /  14.5km/h 46.3% 0.00in /  0mm 540 W/m2
17:04 73.6 °F /  23.1 °C 52.2 °F /  11.2 °C 30.52in /  1033.4hPa West 5.1mph /  8.2km/h 9mph /  14.5km/h 47% 0.00in /  0mm 504 W/m2
17:09 73.2 °F /  22.9 °C 51.7 °F /  10.9 °C 30.52in /  1033.4hPa NNW 5.8mph /  9.3km/h 9mph /  14.5km/h 46.8% 0.00in /  0mm 527 W/m2
17:14 73.2 °F /  22.9 °C 51.8 °F /  11 °C 30.52in /  1033.4hPa North 4.1mph /  6.6km/h 8mph /  12.9km/h 47% 0.00in /  0mm 512 W/m2
17:19 73.8 °F /  23.2 °C 52.2 °F /  11.2 °C 30.52in /  1033.4hPa WNW 2.4mph /  3.9km/h 6mph /  9.7km/h 46.8% 0.00in /  0mm 522 W/m2
17:24 74 °F /  23.3 °C 52.2 °F /  11.2 °C 30.52in /  1033.4hPa NW 4mph /  6.4km/h 8mph /  12.9km/h 46.5% 0.00in /  0mm 446 W/m2
17:29 73.7 °F /  23.2 °C 52.1 °F /  11.2 °C 30.52in /  1033.4hPa WNW 3.7mph /  6km/h 8mph /  12.9km/h 46.8% 0.00in /  0mm 397 W/m2
17:34 73.2 °F /  22.9 °C 51.9 °F /  11.1 °C 30.52in /  1033.4hPa WNW 3.3mph /  5.3km/h 9mph /  14.5km/h 47.2% 0.00in /  0mm 374 W/m2
17:39 73.2 °F /  22.9 °C 52.2 °F /  11.2 °C 30.52in /  1033.4hPa WNW 2.1mph /  3.4km/h 9mph /  14.5km/h 47.8% 0.00in /  0mm 343 W/m2
17:44 73 °F /  22.8 °C 52 °F /  11.1 °C 30.52in /  1033.4hPa West 4.8mph /  7.7km/h 8mph /  12.9km/h 47.6% 0.00in /  0mm 251 W/m2
17:49 72.5 °F /  22.5 °C 51.6 °F /  10.9 °C 30.52in /  1033.4hPa WNW 3.7mph /  6km/h 8mph /  12.9km/h 48% 0.00in /  0mm 308 W/m2
17:54 72.6 °F /  22.6 °C 52.3 °F /  11.3 °C 30.52in /  1033.4hPa WNW 2.7mph /  4.3km/h 6mph /  9.7km/h 49% 0.00in /  0mm 265 W/m2
17:59 72.7 °F /  22.6 °C 52.1 °F /  11.2 °C 30.52in /  1033.4hPa NW 4.4mph /  7.1km/h 8mph /  12.9km/h 48.6% 0.00in /  0mm 281 W/m2
18:04 72.2 °F /  22.3 °C 52.1 °F /  11.2 °C 30.52in /  1033.4hPa NW 5.4mph /  8.7km/h 9mph /  14.5km/h 49% 0.00in /  0mm 338 W/m2
18:09 72.3 °F /  22.4 °C 52.3 °F /  11.3 °C 30.52in /  1033.4hPa WNW 3.3mph /  5.3km/h 8mph /  12.9km/h 49.2% 0.00in /  0mm 404 W/m2
18:14 72.9 °F /  22.7 °C 51.7 °F /  10.9 °C 30.52in /  1033.4hPa West 5.7mph /  9.2km/h 10mph /  16.1km/h 47.6% 0.00in /  0mm 397 W/m2
18:19 72.9 °F /  22.7 °C 51.5 °F /  10.8 °C 30.52in /  1033.4hPa West 4.1mph /  6.6km/h 8mph /  12.9km/h 47.2% 0.00in /  0mm 425 W/m2
18:24 73.3 °F /  22.9 °C 51.9 °F /  11.1 °C 30.51in /  1033.1hPa WNW 3.8mph /  6.1km/h 7mph /  11.3km/h 47% 0.00in /  0mm 431 W/m2
18:29 73.4 °F /  23 °C 51.7 °F /  10.9 °C 30.52in /  1033.4hPa WNW 2.7mph /  4.3km/h 7mph /  11.3km/h 46.5% 0.00in /  0mm 408 W/m2
18:34 73.3 °F /  22.9 °C 51.9 °F /  11.1 °C 30.52in /  1033.4hPa WNW 4.6mph /  7.4km/h 11mph /  17.7km/h 47% 0.00in /  0mm 378 W/m2
18:39 73 °F /  22.8 °C 51.4 °F /  10.8 °C 30.52in /  1033.4hPa West 3.6mph /  5.8km/h 8mph /  12.9km/h 46.8% 0.00in /  0mm 348 W/m2
18:44 72.8 °F /  22.7 °C 51.1 °F /  10.6 °C 30.51in /  1033.1hPa West 5.4mph /  8.7km/h 9mph /  14.5km/h 46.6% 0.00in /  0mm 329 W/m2
18:49 72.7 °F /  22.6 °C 51.5 °F /  10.8 °C 30.51in /  1033.1hPa WNW 5.6mph /  9km/h 9mph /  14.5km/h 47.4% 0.00in /  0mm 309 W/m2
18:54 72.4 °F /  22.4 °C 52.2 °F /  11.2 °C 30.52in /  1033.4hPa WNW 5.7mph /  9.2km/h 15mph /  24.1km/h 49.2% 0.00in /  0mm 301 W/m2
18:59 71.2 °F /  21.8 °C 51.4 °F /  10.8 °C 30.52in /  1033.4hPa WNW 10.1mph /  16.3km/h 16mph /  25.7km/h 49.6% 0.00in /  0mm 288 W/m2
19:04 70.3 °F /  21.3 °C 51 °F /  10.6 °C 30.52in /  1033.4hPa WNW 9.1mph /  14.6km/h 14mph /  22.5km/h 50.3% 0.00in /  0mm 272 W/m2
19:09 70.1 °F /  21.2 °C 51 °F /  10.6 °C 30.52in /  1033.4hPa WNW 8.2mph /  13.2km/h 15mph /  24.1km/h 50.6% 0.00in /  0mm 260 W/m2
19:14 70.2 °F /  21.2 °C 50.9 °F /  10.5 °C 30.52in /  1033.4hPa WNW 7.5mph /  12.1km/h 12mph /  19.3km/h 50.4% 0.00in /  0mm 244 W/m2
19:18 70.1 °F /  21.2 °C 51 °F /  10.6 °C 30.52in /  1033.4hPa West 7mph /  11.3km/h 12mph /  19.3km/h 50.8% 0.00in /  0mm 230 W/m2
19:24 70 °F /  21.1 °C 51.1 °F /  10.6 °C 30.52in /  1033.4hPa WNW 10mph /  16.1km/h 12mph /  19.3km/h 51% 0.00in /  0mm 216 W/m2
19:29 69.9 °F /  21.1 °C 51.4 °F /  10.8 °C 30.52in /  1033.4hPa West 7.4mph /  11.9km/h 13mph /  20.9km/h 51.8% 0.00in /  0mm 197 W/m2
19:34 69.9 °F /  21.1 °C 51.5 °F /  10.8 °C 30.53in /  1033.7hPa WNW 5.5mph /  8.9km/h 12mph /  19.3km/h 52% 0.00in /  0mm 179 W/m2
19:39 69.4 °F /  20.8 °C 51.7 °F /  10.9 °C 30.53in /  1033.7hPa WNW 7mph /  11.3km/h 12mph /  19.3km/h 53.2% 0.00in /  0mm 162 W/m2
19:44 69.4 °F /  20.8 °C 52.1 °F /  11.2 °C 30.53in /  1033.7hPa NW 3.8mph /  6.1km/h 11mph /  17.7km/h 54% 0.00in /  0mm 148 W/m2
19:48 69.2 °F /  20.7 °C 51.9 °F /  11.1 °C 30.53in /  1033.7hPa WNW 6.2mph /  10km/h 12mph /  19.3km/h 54% 0.00in /  0mm 130 W/m2
19:54 68.6 °F /  20.3 °C 51.7 °F /  10.9 °C 30.53in /  1033.7hPa WNW 6.2mph /  10km/h 14mph /  22.5km/h 54.8% 0.00in /  0mm 116 W/m2
19:59 68.1 °F /  20.1 °C 51.4 °F /  10.8 °C 30.53in /  1033.7hPa WNW 7.4mph /  11.9km/h 12mph /  19.3km/h 55% 0.00in /  0mm 100 W/m2
20:04 67.7 °F /  19.8 °C 51.5 °F /  10.8 °C 30.53in /  1033.7hPa WNW 6.8mph /  10.9km/h 11mph /  17.7km/h 56% 0.00in /  0mm 88 W/m2
20:09 67.6 °F /  19.8 °C 51.7 °F /  10.9 °C 30.53in /  1033.7hPa WNW 5.3mph /  8.5km/h 10mph /  16.1km/h 56.8% 0.00in /  0mm 76 W/m2
20:14 67.4 °F /  19.7 °C 51.6 °F /  10.9 °C 30.53in /  1033.7hPa West 5.8mph /  9.3km/h 10mph /  16.1km/h 57% 0.00in /  0mm 63 W/m2
20:19 67.2 °F /  19.6 °C 51.6 °F /  10.9 °C 30.54in /  1034.1hPa WNW 5.5mph /  8.9km/h 10mph /  16.1km/h 57.4% 0.00in /  0mm 47 W/m2
20:24 66.7 °F /  19.3 °C 51.3 °F /  10.7 °C 30.54in /  1034.1hPa WNW 5.4mph /  8.7km/h 9mph /  14.5km/h 57.8% 0.00in /  0mm 40 W/m2
20:29 66.4 °F /  19.1 °C 51.4 °F /  10.8 °C 30.54in /  1034.1hPa WNW 5.1mph /  8.2km/h 10mph /  16.1km/h 58.6% 0.00in /  0mm 30 W/m2
20:34 66 °F /  18.9 °C 51.3 °F /  10.7 °C 30.54in /  1034.1hPa WNW 5mph /  8km/h 8mph /  12.9km/h 59% 0.00in /  0mm 25 W/m2
20:39 65.8 °F /  18.8 °C 51 °F /  10.6 °C 30.54in /  1034.1hPa WNW 5.8mph /  9.3km/h 9mph /  14.5km/h 59% 0.00in /  0mm 19 W/m2
20:44 65.4 °F /  18.6 °C 50.6 °F /  10.3 °C 30.54in /  1034.1hPa WNW 4.9mph /  7.9km/h 11mph /  17.7km/h 59% 0.00in /  0mm 16 W/m2
20:49 64.8 °F /  18.2 °C 50.4 °F /  10.2 °C 30.54in /  1034.1hPa WNW 5.3mph /  8.5km/h 9mph /  14.5km/h 59.6% 0.00in /  0mm 14 W/m2
20:54 64.3 °F /  17.9 °C 50.3 °F /  10.2 °C 30.54in /  1034.1hPa West 3.7mph /  6km/h 10mph /  16.1km/h 60.4% 0.00in /  0mm 11 W/m2
20:59 63.9 °F /  17.7 °C 50.3 °F /  10.2 °C 30.55in /  1034.4hPa WNW 3.7mph /  6km/h 7mph /  11.3km/h 61% 0.00in /  0mm 9 W/m2
21:04 63.7 °F /  17.6 °C 50 °F /  10 °C 30.55in /  1034.4hPa WNW 3.7mph /  6km/h 6mph /  9.7km/h 61% 0.00in /  0mm 7 W/m2
21:09 63.3 °F /  17.4 °C 50 °F /  10 °C 30.55in /  1034.4hPa West 4.4mph /  7.1km/h 7mph /  11.3km/h 62% 0.00in /  0mm 5 W/m2
21:14 62.9 °F /  17.2 °C 49.7 °F /  9.8 °C 30.55in /  1034.4hPa WNW 5.2mph /  8.4km/h 8mph /  12.9km/h 62% 0.00in /  0mm 0 W/m2
21:19 62.4 °F /  16.9 °C 49.6 °F /  9.8 °C 30.55in /  1034.4hPa WNW 4mph /  6.4km/h 8mph /  12.9km/h 63% 0.00in /  0mm 0 W/m2
21:24 62.2 °F /  16.8 °C 49.9 °F /  9.9 °C 30.55in /  1034.4hPa West 3.6mph /  5.8km/h 6mph /  9.7km/h 64% 0.00in /  0mm 0 W/m2
21:29 62 °F /  16.7 °C 49.8 °F /  9.9 °C 30.55in /  1034.4hPa WNW 3.3mph /  5.3km/h 8mph /  12.9km/h 64.4% 0.00in /  0mm 0 W/m2
21:34 61.7 °F /  16.5 °C 49.8 °F /  9.9 °C 30.55in /  1034.4hPa WNW 4.1mph /  6.6km/h 7mph /  11.3km/h 65% 0.00in /  0mm 0 W/m2
21:39 61.2 °F /  16.2 °C 49.6 °F /  9.8 °C 30.55in /  1034.4hPa West 3.3mph /  5.3km/h 7mph /  11.3km/h 65.6% 0.00in /  0mm 0 W/m2
21:44 61 °F /  16.1 °C 49.5 °F /  9.7 °C 30.55in /  1034.4hPa West 2.2mph /  3.5km/h 6mph /  9.7km/h 66% 0.00in /  0mm 0 W/m2
21:49 60.8 °F /  16 °C 49.7 °F /  9.8 °C 30.55in /  1034.4hPa WNW 0.9mph /  1.4km/h 5mph /  8km/h 66.6% 0.00in /  0mm 0 W/m2
21:54 60.6 °F /  15.9 °C 49.6 °F /  9.8 °C 30.55in /  1034.4hPa WNW 0.2mph /  0.3km/h 2mph /  3.2km/h 67% 0.00in /  0mm 0 W/m2
21:59 60.6 °F /  15.9 °C 49.6 °F /  9.8 °C 30.55in /  1034.4hPa WNW 0.2mph /  0.3km/h 1mph /  1.6km/h 67% 0.00in /  0mm 0 W/m2
22:04 60.4 °F /  15.8 °C 49.5 °F /  9.7 °C 30.55in /  1034.4hPa WNW 0.8mph /  1.3km/h 3mph /  4.8km/h 67% 0.00in /  0mm 0 W/m2
22:09 60.2 °F /  15.7 °C 49.6 °F /  9.8 °C 30.56in /  1034.8hPa WNW 1.5mph /  2.4km/h 3mph /  4.8km/h 68% 0.00in /  0mm 0 W/m2
22:14 59.9 °F /  15.5 °C 49.3 °F /  9.6 °C 30.56in /  1034.8hPa WNW 0.9mph /  1.4km/h 3mph /  4.8km/h 68% 0.00in /  0mm 0 W/m2
22:19 59.5 °F /  15.3 °C 49 °F /  9.4 °C 30.56in /  1034.8hPa WNW 1.3mph /  2.1km/h 4mph /  6.4km/h 68.4% 0.00in /  0mm 0 W/m2
22:24 59.3 °F /  15.2 °C 49.1 °F /  9.5 °C 30.56in /  1034.8hPa WNW 2.4mph /  3.9km/h 6mph /  9.7km/h 69% 0.00in /  0mm 0 W/m2
22:29 59.1 °F /  15.1 °C 49 °F /  9.4 °C 30.56in /  1034.8hPa WNW 2.1mph /  3.4km/h 5mph /  8km/h 69% 0.00in /  0mm 0 W/m2
22:34 58.9 °F /  14.9 °C 48.8 °F /  9.3 °C 30.56in /  1034.8hPa WNW 1.1mph /  1.8km/h 5mph /  8km/h 69% 0.00in /  0mm 0 W/m2
22:39 58.7 °F /  14.8 °C 48.8 °F /  9.3 °C 30.56in /  1034.8hPa WNW 1mph /  1.6km/h 3mph /  4.8km/h 69.8% 0.00in /  0mm 0 W/m2
22:44 58.6 °F /  14.8 °C 48.9 °F /  9.4 °C 30.56in /  1034.8hPa WNW 0.4mph /  0.6km/h 2mph /  3.2km/h 70% 0.00in /  0mm 0 W/m2
22:49 58.4 °F /  14.7 °C 48.6 °F /  9.2 °C 30.56in /  1034.8hPa WNW 0.5mph /  0.8km/h 2mph /  3.2km/h 70% 0.00in /  0mm 0 W/m2
22:54 58.1 °F /  14.5 °C 48.6 °F /  9.2 °C 30.57in /  1035.1hPa WNW 0.4mph /  0.6km/h 2mph /  3.2km/h 70.8% 0.00in /  0mm 0 W/m2
22:59 57.8 °F /  14.3 °C 48.5 °F /  9.2 °C 30.57in /  1035.1hPa WNW 1.6mph /  2.6km/h 4mph /  6.4km/h 71% 0.00in /  0mm 0 W/m2
23:04 57.6 °F /  14.2 °C 48.4 °F /  9.1 °C 30.57in /  1035.1hPa WNW 2.1mph /  3.4km/h 3mph /  4.8km/h 71.4% 0.00in /  0mm 0 W/m2
23:09 57.4 °F /  14.1 °C 48.4 °F /  9.1 °C 30.56in /  1034.8hPa WNW 2.2mph /  3.5km/h 4mph /  6.4km/h 72% 0.00in /  0mm 0 W/m2
23:14 57.2 °F /  14 °C 48.2 °F /  9 °C 30.57in /  1035.1hPa WNW 2.7mph /  4.3km/h 4mph /  6.4km/h 72% 0.00in /  0mm 0 W/m2
23:19 56.9 °F /  13.8 °C 47.9 °F /  8.8 °C 30.57in /  1035.1hPa NW 3.5mph /  5.6km/h 5mph /  8km/h 72% 0.00in /  0mm 0 W/m2
23:24 56.8 °F /  13.8 °C 48 °F /  8.9 °C 30.57in /  1035.1hPa NW 2.6mph /  4.2km/h 5mph /  8km/h 72.6% 0.00in /  0mm 0 W/m2
23:29 56.6 °F /  13.7 °C 48 °F /  8.9 °C 30.57in /  1035.1hPa NW 2mph /  3.2km/h 3mph /  4.8km/h 73% 0.00in /  0mm 0 W/m2
23:33 56.5 °F /  13.6 °C 48 °F /  8.9 °C 30.57in /  1035.1hPa NW 1.7mph /  2.7km/h 3mph /  4.8km/h 73% 0.00in /  0mm 0 W/m2
23:39 56.4 °F /  13.6 °C 48.1 °F /  8.9 °C 30.57in /  1035.1hPa NW 1.7mph /  2.7km/h 3mph /  4.8km/h 73.6% 0.00in /  0mm 0 W/m2
23:44 56 °F /  13.3 °C 47.8 °F /  8.8 °C 30.57in /  1035.1hPa NW 2mph /  3.2km/h 3mph /  4.8km/h 73.6% 0.00in /  0mm 0 W/m2
23:49 55.8 °F /  13.2 °C 47.7 °F /  8.7 °C 30.57in /  1035.1hPa NW 2.1mph /  3.4km/h 4mph /  6.4km/h 74% 0.00in /  0mm 0 W/m2
23:54 55.6 °F /  13.1 °C 47.5 °F /  8.6 °C 30.57in /  1035.1hPa NW 1.7mph /  2.7km/h 3mph /  4.8km/h 74% 0.00in /  0mm 0 W/m2
23:59 55.6 °F /  13.1 °C 47.5 °F /  8.6 °C 30.57in /  1035.1hPa NW 0.7mph /  1.1km/h 4mph /  6.4km/h 74% 0.00in /  0mm 0 W/m2
Bath Spa Weather
Compliments of Weather Underground - 2 mb